createdAt,value
2022-08-17T00:11:33.964Z,99.99
2022-08-17T00:12:43.070Z,99.99
2022-08-17T00:14:34.256Z,99.99
2022-08-17T00:15:34.084Z,99.99
2022-08-17T00:16:52.613Z,99.99
2022-08-17T00:19:34.210Z,99.99
2022-08-17T00:20:35.078Z,99.99
2022-08-17T00:21:57.922Z,99.99
2022-08-17T00:27:34.459Z,99.99
2022-08-17T00:30:51.316Z,99.99
2022-08-17T00:35:34.899Z,99.99
2022-08-17T00:36:35.335Z,99.99
2022-08-17T00:42:35.319Z,99.99
2022-08-17T00:51:35.395Z,99.99
2022-08-17T00:52:35.712Z,99.99
2022-08-17T00:59:35.634Z,99.99
2022-08-17T01:01:35.958Z,99.99
2022-08-17T01:03:35.756Z,99.99
2022-08-17T01:06:35.651Z,99.99
2022-08-17T01:09:39.966Z,99.99
2022-08-17T01:10:57.619Z,99.99
2022-08-17T01:11:36.994Z,99.99
2022-08-17T01:12:35.808Z,99.99
2022-08-17T01:13:40.800Z,99.99
2022-08-17T01:14:35.868Z,99.99
2022-08-17T01:15:35.903Z,99.99
2022-08-17T01:16:35.931Z,99.99
2022-08-17T01:17:35.961Z,99.99
2022-08-17T01:18:35.988Z,99.99
2022-08-17T01:19:36.022Z,99.99
2022-08-17T01:20:47.910Z,99.99
2022-08-17T01:21:36.082Z,99.99
2022-08-17T01:22:36.111Z,99.99
2022-08-17T01:23:36.144Z,99.99
2022-08-17T01:24:36.174Z,99.99
2022-08-17T01:25:36.206Z,99.99
2022-08-17T01:26:36.235Z,99.99
2022-08-17T01:27:36.265Z,99.99
2022-08-17T01:28:53.741Z,99.99
2022-08-17T01:29:36.327Z,99.99
2022-08-17T01:30:58.000Z,99.99
2022-08-17T01:31:36.388Z,99.99
2022-08-17T01:32:36.417Z,99.99
2022-08-17T01:36:36.955Z,99.99
2022-08-17T01:37:36.588Z,99.99
2022-08-17T01:38:37.021Z,99.99
2022-08-17T01:41:36.998Z,99.99
2022-08-17T01:45:36.826Z,99.99
2022-08-17T01:56:38.377Z,99.99
2022-08-17T01:58:38.340Z,99.99
2022-08-17T02:00:46.901Z,99.99
2022-08-17T02:02:37.553Z,99.99
2022-08-17T02:04:10.793Z,99.99
2022-08-17T02:13:37.882Z,99.99
2022-08-17T02:14:38.118Z,99.99
2022-08-17T02:18:37.820Z,99.99
2022-08-17T02:20:42.664Z,99.99
2022-08-17T02:21:39.244Z,99.99
2022-08-17T02:29:39.577Z,99.99
2022-08-17T02:37:39.727Z,99.99
2022-08-17T02:40:39.822Z,99.99
2022-08-17T02:49:38.755Z,99.99
2022-08-17T02:58:39.755Z,99.99
2022-08-17T03:01:39.144Z,99.99
2022-08-17T03:02:39.151Z,99.99
2022-08-17T03:03:39.181Z,99.99
2022-08-17T03:04:39.211Z,99.99
2022-08-17T03:05:39.254Z,99.99
2022-08-17T03:06:39.689Z,99.99
2022-08-17T03:07:40.214Z,99.99
2022-08-17T03:30:40.037Z,99.99
2022-08-17T05:18:09.797Z,98.77
2022-08-17T05:19:09.828Z,98.29
2022-08-17T05:20:09.857Z,98.00
2022-08-17T05:21:09.891Z,98.82
2022-08-17T05:22:09.919Z,98.54
2022-08-17T05:23:09.951Z,98.25
2022-08-17T06:11:14.039Z,94.62
2022-08-17T06:12:14.329Z,94.24
2022-08-17T06:13:11.478Z,93.85
2022-08-17T06:14:11.928Z,93.23
2022-08-17T06:15:11.542Z,92.35
2022-08-17T06:16:28.221Z,92.21
2022-08-17T06:17:14.221Z,91.63
2022-08-17T06:30:12.012Z,91.24
2022-08-17T06:34:13.060Z,91.24
2022-08-17T06:52:12.697Z,80.19
2022-08-17T06:53:13.144Z,79.51
2022-08-17T06:54:12.976Z,79.61
2022-08-17T06:55:18.171Z,79.90
2022-08-17T06:57:12.860Z,81.60
2022-08-17T07:01:13.453Z,81.85
2022-08-17T07:02:13.633Z,82.44
2022-08-17T07:03:13.053Z,82.88
2022-08-17T07:04:13.102Z,83.27
2022-08-17T07:05:13.124Z,82.78
2022-08-17T07:06:13.157Z,83.37
2022-08-17T07:07:13.185Z,83.95
2022-08-17T07:08:13.223Z,83.37
2022-08-17T07:09:13.260Z,83.07
2022-08-17T07:10:13.290Z,83.17
2022-08-17T07:11:13.318Z,82.40
2022-08-17T07:12:13.355Z,83.03
2022-08-17T07:13:13.386Z,82.84
2022-08-17T07:14:17.150Z,83.03
2022-08-17T07:15:14.868Z,84.06
2022-08-17T07:16:13.488Z,85.61
2022-08-17T07:17:13.518Z,85.13
2022-08-17T07:18:13.552Z,85.22
2022-08-17T07:19:13.581Z,84.74
2022-08-17T07:20:13.617Z,85.03
2022-08-17T07:21:17.346Z,84.93
2022-08-17T07:22:13.684Z,84.83
2022-08-17T07:23:13.714Z,85.31
2022-08-17T07:24:29.701Z,84.88
2022-08-17T07:25:13.780Z,85.46
2022-08-17T07:26:13.815Z,85.17
2022-08-17T07:27:13.846Z,85.60
2022-08-17T07:28:13.881Z,84.63
2022-08-17T07:29:13.911Z,84.28
2022-08-17T07:30:13.945Z,83.80
2022-08-17T07:31:13.977Z,82.82
2022-08-17T07:32:14.013Z,82.44
2022-08-17T07:33:14.043Z,82.82
2022-08-17T07:34:14.077Z,83.12
2022-08-17T07:35:15.293Z,82.73
2022-08-17T07:36:14.147Z,82.38
2022-08-17T07:37:14.177Z,81.47
2022-08-17T07:38:24.857Z,81.76
2022-08-17T07:39:14.242Z,82.34
2022-08-17T07:40:16.218Z,82.44
2022-08-17T07:41:14.310Z,83.07
2022-08-17T07:42:14.341Z,83.31
2022-08-17T07:43:21.778Z,83.22
2022-08-17T07:44:14.408Z,82.53
2022-08-17T07:45:14.439Z,83.31
2022-08-17T07:46:14.474Z,82.24
2022-08-17T08:05:51.025Z,84.19
2022-08-17T08:06:50.250Z,84.12
2022-08-17T08:07:50.635Z,83.94
2022-08-17T08:09:50.546Z,84.03
2022-08-17T08:10:50.377Z,83.99
2022-08-17T08:12:52.762Z,84.82
2022-08-17T08:13:51.288Z,85.69
2022-08-17T08:14:50.711Z,85.79
2022-08-17T08:16:50.578Z,86.82
2022-08-17T08:20:53.723Z,88.07
2022-08-17T08:21:50.947Z,88.07
2022-08-17T08:22:50.771Z,87.88
2022-08-17T08:23:51.520Z,88.71
2022-08-17T08:26:51.606Z,88.90
2022-08-17T08:27:51.373Z,89.58
2022-08-17T08:33:51.136Z,90.41
2022-08-17T08:35:01.594Z,90.12
2022-08-17T08:35:51.195Z,90.89
2022-08-17T08:37:12.690Z,90.70
2022-08-17T08:37:51.345Z,90.60
2022-08-17T08:38:52.190Z,90.02
2022-08-17T08:39:51.760Z,90.21
2022-08-17T08:41:51.592Z,89.88
2022-08-17T08:42:51.620Z,90.80
2022-08-17T08:43:53.174Z,90.36
2022-08-17T08:46:51.549Z,91.33
2022-08-17T08:48:55.813Z,91.42
2022-08-17T08:50:51.671Z,91.77
2022-08-17T08:52:51.733Z,92.06
2022-08-17T08:53:52.277Z,92.54
2022-08-17T08:54:52.004Z,91.58
2022-08-17T08:55:52.433Z,91.86
2022-08-17T08:57:21.588Z,91.62
2022-08-17T08:58:51.923Z,92.00
2022-08-17T09:01:52.054Z,92.30
2022-08-17T09:05:36.411Z,92.10
2022-08-17T09:07:36.082Z,92.00
2022-08-17T09:09:41.315Z,92.00
2022-08-17T09:10:38.723Z,92.10
2022-08-17T09:12:02.560Z,92.58
2022-08-17T09:12:38.789Z,92.68
2022-08-17T09:13:38.818Z,92.49
2022-08-17T09:14:44.945Z,92.68
2022-08-17T09:15:38.993Z,92.30
2022-08-17T09:17:39.159Z,92.97
2022-08-17T09:19:39.003Z,92.30
2022-08-17T09:20:39.037Z,92.58
2022-08-17T09:21:39.064Z,92.78
2022-08-17T09:22:39.098Z,92.78
2022-08-17T09:23:39.127Z,92.49
2022-08-17T09:24:39.160Z,93.12
2022-08-17T09:25:39.192Z,93.17
2022-08-17T09:26:39.224Z,93.79
2022-08-17T09:27:39.264Z,93.70
2022-08-17T09:28:39.302Z,93.21
2022-08-17T09:29:40.242Z,93.60
2022-08-17T09:30:39.364Z,93.21
2022-08-17T09:31:49.118Z,93.46
2022-08-17T09:32:40.235Z,93.65
2022-08-17T09:34:39.489Z,92.93
2022-08-17T09:35:39.727Z,92.83
2022-08-17T09:36:39.552Z,92.83
2022-08-17T09:37:39.999Z,92.83
2022-08-17T09:38:39.820Z,92.54
2022-08-17T09:43:40.891Z,94.04
2022-08-17T09:44:39.803Z,93.65
2022-08-17T09:47:39.895Z,94.04
2022-08-17T09:48:41.236Z,93.85
2022-08-17T09:50:55.529Z,93.36
2022-08-17T09:51:40.030Z,94.43
2022-08-17T09:54:40.882Z,94.33
2022-08-17T09:57:40.419Z,96.31
2022-08-17T10:00:40.821Z,96.60
2022-08-17T10:03:40.604Z,96.02
2022-08-17T10:04:40.639Z,96.02
2022-08-17T10:06:40.696Z,95.54
2022-08-17T10:07:40.936Z,95.06
2022-08-17T10:10:41.907Z,95.10
2022-08-17T10:12:46.476Z,94.33
2022-08-17T10:14:43.766Z,94.47
2022-08-17T10:16:41.623Z,93.85
2022-08-17T10:19:43.933Z,93.89
2022-08-17T10:20:41.138Z,93.31
2022-08-17T10:21:40.970Z,92.63
2022-08-17T10:22:41.712Z,92.49
2022-08-17T10:27:41.162Z,90.20
2022-08-17T10:28:41.390Z,90.50
2022-08-17T10:32:41.518Z,91.37
2022-08-17T10:34:41.985Z,90.01
2022-08-17T10:35:41.623Z,89.82
2022-08-17T10:36:41.643Z,90.69
2022-08-17T10:37:41.484Z,90.64
2022-08-17T10:40:41.778Z,91.37
2022-08-17T10:41:41.813Z,90.59
2022-08-17T10:42:41.835Z,90.44
2022-08-17T10:52:42.372Z,86.49
2022-08-17T10:53:41.980Z,85.75
2022-08-17T10:54:42.016Z,83.65
2022-08-17T10:55:42.045Z,83.69
2022-08-17T10:56:42.080Z,82.33
2022-08-17T10:57:42.112Z,82.62
2022-08-17T10:58:42.146Z,81.94
2022-08-17T10:59:42.184Z,80.58
2022-08-17T11:00:42.287Z,80.82
2022-08-17T11:01:42.244Z,80.13
2022-08-17T11:10:42.548Z,80.82
2022-08-17T11:11:42.580Z,80.04
2022-08-17T11:12:42.617Z,79.33
2022-08-17T11:13:42.649Z,78.65
2022-08-17T11:14:42.683Z,79.10
2022-08-17T11:15:42.718Z,79.06
2022-08-17T11:16:42.770Z,79.55
2022-08-17T11:17:42.799Z,80.48
2022-08-17T11:18:42.840Z,80.77
2022-08-17T11:19:42.869Z,80.64
2022-08-17T11:20:42.903Z,81.90
2022-08-17T11:21:42.933Z,82.78
2022-08-17T11:22:42.956Z,83.42
2022-08-17T11:23:42.989Z,83.03
2022-08-17T11:24:44.661Z,83.32
2022-08-17T11:25:43.058Z,83.22
2022-08-17T11:26:43.092Z,83.32
2022-08-17T11:27:43.126Z,83.42
2022-08-17T11:28:43.163Z,83.22
2022-08-17T11:29:43.195Z,83.65
2022-08-17T11:30:43.584Z,82.68
2022-08-17T11:31:43.481Z,82.00
2022-08-17T11:32:47.717Z,82.20
2022-08-17T11:33:43.330Z,82.45
2022-08-17T11:34:43.372Z,83.57
2022-08-17T11:35:43.400Z,83.47
2022-08-17T11:36:43.435Z,83.12
2022-08-17T11:37:43.474Z,83.57
2022-08-17T11:38:43.526Z,83.51
2022-08-17T11:39:43.590Z,83.22
2022-08-17T11:40:43.573Z,83.12
2022-08-17T11:41:43.617Z,83.32
2022-08-17T11:42:43.701Z,82.74
2022-08-17T11:43:43.692Z,83.96
2022-08-17T11:44:43.713Z,83.96
2022-08-17T11:45:43.751Z,83.96
2022-08-17T11:46:43.779Z,84.31
2022-08-17T11:47:57.015Z,85.28
2022-08-17T11:48:43.847Z,85.32
2022-08-17T11:49:43.881Z,84.83
2022-08-17T11:50:43.917Z,84.79
2022-08-17T11:51:43.947Z,84.25
2022-08-17T11:52:46.052Z,84.31
2022-08-17T11:53:44.016Z,83.76
2022-08-17T11:54:44.052Z,84.06
2022-08-17T11:55:45.061Z,84.00
2022-08-17T11:56:44.119Z,84.00
2022-08-17T11:57:44.153Z,83.26
2022-08-17T11:58:44.186Z,82.62
2022-08-17T11:59:44.221Z,81.16
2022-08-17T12:00:44.258Z,80.87
2022-08-17T12:01:44.288Z,80.91
2022-08-17T12:02:47.875Z,79.06
2022-08-17T12:03:55.614Z,79.12
2022-08-17T12:04:44.471Z,79.55
2022-08-17T12:05:44.425Z,79.84
2022-08-17T12:06:44.461Z,80.52
2022-08-17T12:07:44.570Z,79.74
2022-08-17T12:08:44.530Z,80.29
2022-08-17T12:09:47.249Z,80.77
2022-08-17T12:10:44.595Z,80.68
2022-08-17T12:11:55.413Z,81.75
2022-08-17T12:12:44.663Z,82.58
2022-08-17T12:13:44.701Z,82.68
2022-08-17T12:15:09.107Z,82.78
2022-08-17T12:15:44.769Z,82.58
2022-08-17T12:16:44.801Z,83.26
2022-08-17T12:17:44.837Z,83.31
2022-08-17T12:18:44.869Z,81.85
2022-08-17T12:19:44.907Z,82.43
2022-08-17T12:20:44.938Z,81.85
2022-08-17T12:21:44.973Z,82.43
2022-08-17T12:22:45.004Z,82.87
2022-08-17T12:23:45.044Z,82.78
2022-08-17T12:24:45.074Z,83.22
2022-08-17T12:25:45.109Z,84.10
2022-08-17T12:26:45.147Z,84.10
2022-08-17T12:28:04.608Z,83.81
2022-08-17T12:28:45.222Z,84.97
2022-08-17T12:29:45.250Z,84.48
2022-08-17T12:30:45.277Z,84.30
2022-08-17T12:31:45.313Z,84.10
2022-08-17T12:32:45.345Z,83.85
2022-08-17T12:33:45.381Z,84.23
2022-08-17T12:34:45.411Z,83.65
2022-08-17T12:35:45.463Z,83.36
2022-08-17T12:36:45.482Z,83.60
2022-08-17T12:37:45.516Z,82.33
2022-08-17T12:38:45.547Z,82.10
2022-08-17T12:39:45.692Z,82.33
2022-08-17T12:40:45.615Z,82.78
2022-08-17T12:41:45.656Z,83.07
2022-08-17T12:42:45.682Z,82.68
2022-08-17T12:43:45.718Z,83.26
2022-08-17T12:44:49.986Z,83.07
2022-08-17T12:45:45.787Z,83.26
2022-08-17T12:46:45.818Z,83.26
2022-08-17T12:47:45.904Z,83.65
2022-08-17T12:48:59.802Z,83.51
2022-08-17T12:49:45.922Z,84.10
2022-08-17T12:50:45.962Z,83.91
2022-08-17T12:51:45.989Z,84.23
2022-08-17T12:52:46.020Z,83.65
2022-08-17T12:53:46.257Z,83.71
2022-08-17T12:54:46.087Z,84.16
2022-08-17T12:55:46.125Z,84.39
2022-08-17T12:56:46.160Z,84.39
2022-08-17T12:57:46.260Z,84.68
2022-08-17T12:58:46.220Z,84.05
2022-08-17T12:59:46.258Z,84.43
2022-08-17T13:00:47.577Z,84.23
2022-08-17T13:01:46.407Z,83.40
2022-08-17T13:02:46.355Z,83.11
2022-08-17T13:03:46.423Z,82.53
2022-08-17T13:04:46.423Z,82.72
2022-08-17T13:05:46.460Z,82.14
2022-08-17T13:06:46.489Z,82.62
2022-08-17T13:07:46.723Z,82.14
2022-08-17T13:08:46.560Z,82.04
2022-08-17T13:09:46.590Z,82.53
2022-08-17T13:10:46.624Z,82.23
2022-08-17T13:11:46.659Z,83.01
2022-08-17T13:12:46.692Z,83.21
2022-08-17T13:13:46.728Z,83.01
2022-08-17T13:14:46.761Z,83.11
2022-08-17T13:15:46.794Z,82.82
2022-08-17T13:16:46.826Z,83.40
2022-08-17T13:17:46.946Z,82.58
2022-08-17T13:18:46.892Z,83.07
2022-08-17T13:19:46.928Z,83.07
2022-08-17T13:20:46.961Z,83.56
2022-08-17T13:21:46.994Z,83.81
2022-08-17T13:22:47.028Z,84.48
2022-08-17T13:23:53.719Z,85.07
2022-08-17T13:24:47.094Z,84.97
2022-08-17T13:25:47.132Z,84.97
2022-08-17T13:26:47.162Z,84.48
2022-08-17T13:27:47.203Z,85.07
2022-08-17T13:28:47.230Z,85.32
2022-08-17T13:29:52.407Z,85.52
2022-08-17T13:30:47.314Z,86.68
2022-08-17T13:31:52.898Z,85.71
2022-08-17T13:32:47.363Z,85.22
2022-08-17T13:33:47.399Z,86.00
2022-08-17T13:35:12.090Z,86.00
2022-08-17T13:35:50.266Z,85.61
2022-08-17T13:36:47.932Z,86.24
2022-08-17T13:37:47.532Z,85.94
2022-08-17T13:38:47.569Z,85.69
2022-08-17T13:39:47.631Z,86.08
2022-08-17T13:40:47.631Z,84.92
2022-08-17T13:41:47.666Z,84.20
2022-08-17T13:42:52.086Z,84.97
2022-08-17T13:43:47.732Z,85.02
2022-08-17T13:44:47.766Z,84.97
2022-08-17T13:45:50.707Z,85.07
2022-08-17T13:46:47.842Z,84.68
2022-08-17T13:47:47.865Z,84.88
2022-08-17T13:48:47.900Z,84.39
2022-08-17T13:49:48.867Z,84.00
2022-08-17T13:50:47.965Z,84.20
2022-08-17T13:51:48.000Z,84.20
2022-08-17T13:52:51.939Z,85.42
2022-08-17T13:53:48.068Z,86.10
2022-08-17T13:54:48.098Z,85.90
2022-08-17T13:55:48.136Z,86.04
2022-08-17T13:56:48.165Z,86.78
2022-08-17T13:57:48.199Z,86.63
2022-08-17T13:58:48.234Z,86.14
2022-08-17T13:59:54.804Z,85.66
2022-08-17T14:00:48.305Z,85.56
2022-08-17T14:01:53.471Z,85.66
2022-08-17T14:02:48.367Z,86.24
2022-08-17T14:03:48.399Z,86.63
2022-08-17T14:04:48.436Z,85.50
2022-08-17T14:05:48.466Z,85.02
2022-08-17T14:06:53.385Z,85.31
2022-08-17T14:07:48.534Z,85.02
2022-08-17T14:08:48.568Z,84.92
2022-08-17T14:09:48.602Z,85.02
2022-08-17T14:10:48.635Z,84.63
2022-08-17T14:11:48.669Z,84.53
2022-08-17T14:12:48.703Z,84.88
2022-08-17T14:13:48.737Z,85.07
2022-08-17T14:14:48.771Z,86.04
2022-08-17T14:15:54.965Z,86.19
2022-08-17T14:16:48.842Z,86.39
2022-08-17T14:17:48.870Z,86.74
2022-08-17T14:18:56.253Z,87.71
2022-08-17T14:19:48.937Z,87.51
2022-08-17T14:20:48.971Z,88.04
2022-08-17T14:21:49.004Z,87.26
2022-08-17T14:22:49.042Z,87.26
2022-08-17T14:23:54.919Z,87.51
2022-08-17T14:24:49.103Z,87.55
2022-08-17T14:25:49.136Z,87.07
2022-08-17T14:26:49.174Z,86.98
2022-08-17T14:27:53.396Z,87.16
2022-08-17T14:28:54.525Z,86.88
2022-08-17T14:29:49.271Z,86.78
2022-08-17T14:30:49.303Z,87.36
2022-08-17T14:31:54.112Z,87.26
2022-08-17T14:32:49.372Z,86.98
2022-08-17T14:33:49.406Z,86.39
2022-08-17T14:34:49.438Z,86.49
2022-08-17T14:35:49.473Z,86.88
2022-08-17T14:36:49.507Z,86.68
2022-08-17T14:37:49.768Z,87.55
2022-08-17T14:38:49.570Z,87.41
2022-08-17T14:39:49.692Z,87.51
2022-08-17T14:40:49.636Z,88.10
2022-08-17T14:41:49.671Z,88.10
2022-08-17T14:42:49.703Z,87.90
2022-08-17T14:43:49.734Z,87.41
2022-08-17T14:44:49.769Z,87.41
2022-08-17T14:45:49.801Z,86.54
2022-08-17T14:46:50.155Z,87.46
2022-08-17T14:47:50.035Z,86.25
2022-08-17T14:48:53.878Z,86.88
2022-08-17T14:49:49.935Z,86.98
2022-08-17T14:50:49.970Z,87.85
2022-08-17T14:51:49.997Z,88.29
2022-08-17T14:52:50.034Z,89.11
2022-08-17T14:53:50.066Z,88.62
2022-08-17T14:54:50.099Z,88.82
2022-08-17T14:55:50.131Z,89.01
2022-08-17T14:56:51.582Z,88.33
2022-08-17T14:57:50.411Z,88.14
2022-08-17T14:58:50.233Z,87.60
2022-08-17T14:59:52.346Z,87.55
2022-08-17T15:00:50.298Z,87.12
2022-08-17T15:01:50.425Z,87.46
2022-08-17T15:02:50.366Z,87.26
2022-08-17T15:03:50.396Z,88.04
2022-08-17T15:04:50.433Z,87.75
2022-08-17T15:05:50.463Z,87.85
2022-08-17T15:06:50.498Z,87.95
2022-08-17T15:07:50.789Z,88.04
2022-08-17T15:08:50.563Z,88.04
2022-08-17T15:09:50.598Z,87.95
2022-08-17T15:10:50.629Z,87.85
2022-08-17T15:11:50.686Z,87.26
2022-08-17T15:12:50.737Z,86.58
2022-08-17T15:13:52.346Z,87.85
2022-08-17T15:14:50.762Z,87.81
2022-08-17T15:15:50.794Z,87.51
2022-08-17T15:16:50.832Z,87.32
2022-08-17T15:17:50.885Z,88.19
2022-08-17T15:18:50.896Z,88.24
2022-08-17T15:19:50.938Z,88.24
2022-08-17T15:20:50.960Z,88.19
2022-08-17T15:21:50.993Z,87.81
2022-08-17T15:22:51.026Z,87.51
2022-08-17T15:23:51.059Z,87.46
2022-08-17T15:24:51.094Z,87.75
2022-08-17T15:25:51.125Z,87.46
2022-08-17T15:26:51.160Z,87.55
2022-08-17T15:27:51.455Z,88.53
2022-08-17T15:28:54.377Z,87.75
2022-08-17T15:29:51.265Z,87.85
2022-08-17T15:30:51.293Z,88.04
2022-08-17T15:31:51.323Z,89.21
2022-08-17T15:32:54.723Z,88.14
2022-08-17T15:33:51.388Z,89.21
2022-08-17T15:34:51.424Z,89.11
2022-08-17T15:35:51.455Z,89.40
2022-08-17T15:36:51.495Z,88.62
2022-08-17T15:37:51.837Z,88.28
2022-08-17T15:38:51.555Z,88.18
2022-08-17T15:39:51.686Z,88.33
2022-08-17T15:40:51.622Z,88.24
2022-08-17T15:41:58.038Z,88.72
2022-08-17T15:42:51.782Z,89.26
2022-08-17T15:43:51.719Z,89.65
2022-08-17T15:44:51.752Z,89.84
2022-08-17T15:45:58.714Z,90.23
2022-08-17T15:46:51.819Z,90.04
2022-08-17T15:47:52.114Z,89.45
2022-08-17T15:48:51.885Z,89.84
2022-08-17T15:49:56.676Z,89.26
2022-08-17T15:50:51.963Z,89.36
2022-08-17T15:51:51.984Z,89.41
2022-08-17T15:52:52.017Z,89.41
2022-08-17T15:53:52.047Z,90.67
2022-08-17T15:54:52.080Z,90.48
2022-08-17T15:55:52.118Z,90.19
2022-08-17T15:56:52.147Z,90.67
2022-08-17T15:57:52.576Z,90.97
2022-08-17T15:58:52.214Z,91.45
2022-08-17T15:59:55.079Z,91.64
2022-08-17T16:01:03.242Z,91.50
2022-08-17T16:03:16.011Z,91.45
2022-08-17T16:03:46.978Z,91.41
2022-08-17T16:04:04.069Z,91.60
2022-08-17T16:04:52.457Z,91.89
2022-08-17T16:05:52.441Z,91.74
2022-08-17T16:06:52.474Z,91.70
2022-08-17T16:07:53.412Z,91.64
2022-08-17T16:08:52.553Z,91.64
2022-08-17T16:09:52.571Z,91.35
2022-08-17T16:10:52.617Z,91.35
2022-08-17T16:11:55.107Z,91.06
2022-08-17T16:12:52.950Z,91.64
2022-08-17T16:13:54.880Z,90.87
2022-08-17T16:14:52.733Z,90.67
2022-08-17T16:15:57.088Z,90.97
2022-08-17T16:16:52.800Z,91.06
2022-08-17T16:17:53.168Z,90.73
2022-08-17T16:18:53.590Z,91.06
2022-08-17T16:19:55.932Z,91.02
2022-08-17T16:20:52.940Z,90.63
2022-08-17T16:21:52.965Z,90.82
2022-08-17T16:22:54.157Z,90.82
2022-08-17T16:23:53.022Z,91.02
2022-08-17T16:24:57.416Z,90.97
2022-08-17T16:25:54.433Z,90.77
2022-08-17T16:26:53.122Z,90.63
2022-08-17T16:27:53.326Z,90.44
2022-08-17T16:28:53.185Z,90.63
2022-08-17T16:29:55.478Z,90.24
2022-08-17T16:30:53.250Z,90.82
2022-08-17T16:31:53.280Z,91.50
2022-08-17T16:32:53.537Z,91.79
2022-08-17T16:34:03.793Z,91.60
2022-08-17T16:34:53.378Z,91.99
2022-08-17T16:35:53.409Z,91.89
2022-08-17T16:36:56.153Z,91.50
2022-08-17T16:37:53.474Z,91.31
2022-08-17T16:38:53.509Z,91.70
2022-08-17T16:39:53.867Z,91.70
2022-08-17T16:40:53.674Z,90.73
2022-08-17T16:41:53.606Z,90.53
2022-08-17T16:42:53.723Z,90.63
2022-08-17T16:43:53.670Z,90.44
2022-08-17T16:44:53.705Z,90.63
2022-08-17T16:45:53.737Z,90.14
2022-08-17T16:46:53.778Z,90.39
2022-08-17T16:47:53.796Z,90.20
2022-08-17T16:48:53.833Z,90.39
2022-08-17T16:49:53.896Z,90.20
2022-08-17T16:51:02.913Z,90.44
2022-08-17T16:51:53.927Z,90.05
2022-08-17T16:52:53.968Z,89.56
2022-08-17T16:53:58.702Z,89.42
2022-08-17T16:54:54.023Z,90.05
2022-08-17T16:55:54.057Z,90.14
2022-08-17T16:56:54.089Z,90.24
2022-08-17T16:57:54.120Z,89.85
2022-08-17T16:58:54.152Z,89.47
2022-08-17T16:59:54.184Z,89.66
2022-08-17T17:00:54.394Z,89.95
2022-08-17T17:01:54.248Z,90.14
2022-08-17T17:02:54.281Z,90.30
2022-08-17T17:03:58.137Z,90.34
2022-08-17T17:04:54.347Z,90.24
2022-08-17T17:05:57.873Z,90.44
2022-08-17T17:06:54.409Z,90.14
2022-08-17T17:07:54.440Z,90.10
2022-08-17T17:08:54.476Z,90.48
2022-08-17T17:09:54.507Z,90.39
2022-08-17T17:10:54.539Z,90.48
2022-08-17T17:11:54.584Z,90.58
2022-08-17T17:13:03.133Z,90.68
2022-08-17T17:13:54.636Z,90.58
2022-08-17T17:14:54.667Z,90.78
2022-08-17T17:15:54.698Z,91.55
2022-08-17T17:16:54.733Z,91.71
2022-08-17T17:17:54.763Z,91.31
2022-08-17T17:18:54.796Z,91.99
2022-08-17T17:19:54.826Z,91.31
2022-08-17T17:20:54.862Z,92.19
2022-08-17T17:21:54.894Z,92.48
2022-08-17T17:22:54.923Z,91.80
2022-08-17T17:23:55.157Z,92.38
2022-08-17T17:24:54.989Z,91.99
2022-08-17T17:25:55.019Z,92.48
2022-08-17T17:26:55.052Z,92.58
2022-08-17T17:27:55.086Z,92.67
2022-08-17T17:28:55.117Z,92.38
2022-08-17T17:29:55.165Z,93.16
2022-08-17T17:30:55.191Z,93.35
2022-08-17T17:31:55.229Z,92.86
2022-08-17T17:32:55.244Z,93.16
2022-08-17T17:33:55.274Z,93.06
2022-08-17T17:34:55.326Z,93.30
2022-08-17T17:35:55.349Z,93.79
2022-08-17T17:36:55.383Z,94.27
2022-08-17T17:37:55.417Z,94.08
2022-08-17T17:38:55.437Z,94.27
2022-08-17T17:39:55.546Z,94.76
2022-08-17T17:40:55.498Z,94.37
2022-08-17T17:41:55.543Z,94.47
2022-08-17T17:42:55.561Z,94.85
2022-08-17T17:43:55.592Z,95.15
2022-08-17T17:44:55.627Z,95.15
2022-08-17T17:45:55.658Z,95.25
2022-08-17T17:46:55.690Z,95.10
2022-08-17T17:47:55.718Z,95.39
2022-08-17T17:48:55.753Z,95.25
2022-08-17T17:49:55.784Z,95.20
2022-08-17T17:50:55.812Z,95.20
2022-08-17T17:52:11.020Z,95.10
2022-08-17T17:52:55.877Z,95.20
2022-08-17T17:53:55.907Z,96.17
2022-08-17T17:54:55.938Z,96.55
2022-08-17T17:55:55.972Z,96.17
2022-08-17T17:56:56.007Z,96.36
2022-08-17T17:57:56.037Z,96.07
2022-08-17T17:58:56.068Z,96.45
2022-08-17T17:59:56.095Z,96.07
2022-08-17T18:00:56.144Z,96.17
2022-08-17T18:01:56.214Z,96.26
2022-08-17T18:02:56.192Z,96.75
2022-08-17T18:03:56.239Z,96.50
2022-08-17T18:04:56.254Z,97.52
2022-08-17T18:05:56.288Z,96.99
2022-08-17T18:06:56.317Z,97.18
2022-08-17T18:07:56.346Z,97.38
2022-08-17T18:08:56.382Z,97.57
2022-08-17T18:10:01.077Z,97.57
2022-08-17T18:10:56.443Z,97.28
2022-08-17T18:11:59.054Z,97.86
2022-08-17T18:12:56.512Z,98.35
2022-08-17T18:13:56.537Z,98.15
2022-08-17T18:14:56.566Z,98.15
2022-08-17T18:15:56.602Z,98.35
2022-08-17T18:16:56.631Z,98.25
2022-08-17T18:17:56.662Z,98.15
2022-08-17T18:18:56.693Z,98.30
2022-08-17T18:19:56.725Z,97.38
2022-08-17T18:20:56.765Z,97.18
2022-08-17T18:21:56.787Z,97.13
2022-08-17T18:22:56.817Z,97.23
2022-08-17T18:23:57.052Z,97.28
2022-08-17T18:24:56.879Z,97.52
2022-08-17T18:25:56.914Z,97.04
2022-08-17T18:26:56.941Z,97.23
2022-08-17T18:27:56.975Z,97.33
2022-08-17T18:28:57.005Z,97.72
2022-08-17T18:29:57.039Z,98.10
2022-08-17T18:30:57.067Z,98.00
2022-08-17T18:31:57.098Z,98.78
2022-08-17T18:32:57.131Z,98.97
2022-08-17T18:33:57.164Z,98.97
2022-08-17T18:34:57.194Z,98.93
2022-08-17T18:35:58.468Z,99.69
2022-08-17T18:36:57.255Z,99.89
2022-08-17T18:37:57.290Z,99.99
2022-08-17T18:38:57.318Z,99.99
2022-08-17T18:39:57.487Z,99.99
2022-08-17T18:40:57.379Z,99.99
2022-08-17T18:41:57.413Z,99.99
2022-08-17T18:42:57.519Z,99.99
2022-08-17T18:43:57.475Z,99.99
2022-08-17T18:44:57.507Z,99.99
2022-08-17T18:45:57.743Z,99.99
2022-08-17T18:46:57.569Z,99.99
2022-08-17T18:47:57.601Z,99.99
2022-08-17T18:48:58.871Z,99.99
2022-08-17T18:49:57.671Z,99.99
2022-08-17T18:50:57.692Z,99.99
2022-08-17T18:51:57.928Z,99.99
2022-08-17T18:52:57.754Z,99.99
2022-08-17T18:53:57.788Z,99.99
2022-08-17T18:54:57.818Z,99.99
2022-08-17T18:55:57.849Z,99.99
2022-08-17T18:56:57.878Z,99.99
2022-08-17T18:57:57.911Z,99.99
2022-08-17T18:58:57.941Z,99.99
2022-08-17T18:59:57.973Z,99.99
2022-08-17T19:00:58.004Z,99.99
2022-08-17T19:01:59.891Z,99.99
2022-08-17T19:02:58.126Z,99.99
2022-08-17T19:03:58.100Z,99.99
2022-08-17T19:04:58.132Z,99.99
2022-08-17T19:05:58.160Z,99.99
2022-08-17T19:06:58.188Z,99.99
2022-08-17T19:07:58.222Z,99.99
2022-08-17T19:08:58.251Z,99.99
2022-08-17T19:09:58.284Z,99.99
2022-08-17T19:10:58.314Z,99.99
2022-08-17T19:11:58.344Z,99.99
2022-08-17T19:13:00.322Z,99.99
2022-08-17T19:13:58.409Z,99.99
2022-08-17T19:14:58.438Z,99.99
2022-08-17T19:16:11.780Z,99.99
2022-08-17T19:16:58.497Z,99.99
2022-08-17T19:17:58.531Z,99.99
2022-08-17T19:18:58.559Z,99.99
2022-08-17T19:19:58.598Z,99.99
2022-08-17T19:20:58.622Z,99.99
2022-08-17T19:21:58.655Z,99.99
2022-08-17T19:22:58.684Z,99.99
2022-08-17T19:23:58.723Z,99.99
2022-08-17T19:25:03.521Z,99.99
2022-08-17T19:25:58.779Z,99.99
2022-08-17T19:26:58.806Z,99.99
2022-08-17T19:27:58.991Z,99.99
2022-08-17T19:28:58.868Z,99.99
2022-08-17T19:30:01.637Z,99.99
2022-08-17T19:30:58.929Z,99.99
2022-08-17T19:31:58.968Z,99.99
2022-08-17T19:32:58.992Z,99.99
2022-08-17T19:33:59.026Z,99.99
2022-08-17T19:34:59.052Z,99.99
2022-08-17T19:35:59.087Z,99.99
2022-08-17T19:36:59.114Z,99.99
2022-08-17T19:37:59.146Z,99.99
2022-08-17T19:38:59.177Z,99.99
2022-08-17T19:39:59.309Z,99.99
2022-08-17T19:40:59.289Z,99.99
2022-08-17T19:41:59.270Z,99.99
2022-08-17T19:42:59.298Z,99.99
2022-08-17T19:43:59.331Z,99.99
2022-08-17T19:44:59.360Z,99.99
2022-08-17T19:45:59.553Z,99.99
2022-08-17T19:47:00.856Z,99.99
2022-08-17T19:48:02.866Z,99.99
2022-08-17T19:48:59.483Z,99.99
2022-08-17T19:49:59.516Z,99.99
2022-08-17T19:50:59.551Z,99.99
2022-08-17T19:51:59.595Z,99.99
2022-08-17T19:52:59.609Z,99.99
2022-08-17T19:54:05.760Z,99.99
2022-08-17T19:54:59.670Z,99.99
2022-08-17T19:55:59.704Z,99.99
2022-08-17T19:57:01.671Z,99.99
2022-08-17T19:57:59.764Z,99.99
2022-08-17T19:58:59.790Z,99.99
2022-08-17T19:59:59.829Z,99.99
2022-08-17T20:00:59.916Z,99.99